TAF and METAR

METAR for Adelaide Airport

YPAD 191500Z 06005KT CAVOK 18/14 Q1014 NOSIG
Report created 19. mar 16:00
wind 5 knots from ENE (060°) Clear sky Temperature 18° with dewpoint at 14° (Humidity 77.48%) Pressure 1014 hPa no significant weather change expected the next couple of hours

TAF for Adelaide Airport

TAF YPAD 191113Z 1912/2018 VRB03KT CAVOK FM200100 26008KT CAVOK FM200400 23012KT CAVOK FM200900 VRB05KT CAVOK
Report created 19. mar 12:13

between 19. mar 13:00 - 20. mar 19:00

wind 3 knots from various directions Clear sky

From 20. mar 02:00

wind 8 knots from W (260°) Clear sky

From 20. mar 05:00

wind 12 knots from SW (230°) Clear sky

From 20. mar 10:00

wind 5 knots from various directions Clear sky
Adelaide Airport in Australia at 4m

Latest 5 airports